createdAt,value
2017-07-01T00:00:39.776Z,16.90
2017-07-01T00:03:06.858Z,16.90
2017-07-01T00:05:33.224Z,16.90
2017-07-01T00:07:59.608Z,16.90
2017-07-01T00:10:26.221Z,16.90
2017-07-01T00:12:53.518Z,17.00
2017-07-01T00:17:53.083Z,17.00
2017-07-01T00:20:19.460Z,17.00
2017-07-01T00:22:47.385Z,17.00
2017-07-01T00:25:14.532Z,17.00
2017-07-01T00:27:41.753Z,17.00
2017-07-01T00:30:08.164Z,17.00
2017-07-01T00:32:34.564Z,17.00
2017-07-01T00:35:01.712Z,17.10
2017-07-01T00:37:28.921Z,17.10
2017-07-01T00:39:56.159Z,17.10
2017-07-01T00:42:22.553Z,17.10
2017-07-01T00:44:49.004Z,17.10
2017-07-01T00:47:15.468Z,17.10
2017-07-01T00:49:41.861Z,17.10
2017-07-01T00:52:08.349Z,17.10
2017-07-01T00:54:34.737Z,17.10
2017-07-01T00:57:01.197Z,17.10
2017-07-01T00:59:27.653Z,17.10
2017-07-01T01:01:54.061Z,17.10
2017-07-01T01:04:20.486Z,17.10
2017-07-01T01:06:47.235Z,17.10
2017-07-01T01:09:13.643Z,17.10
2017-07-01T01:11:40.063Z,17.10
2017-07-01T01:14:06.536Z,17.10
2017-07-01T01:16:32.949Z,17.00
2017-07-01T01:18:59.347Z,17.00
2017-07-01T01:21:26.548Z,17.00
2017-07-01T01:23:52.976Z,17.00
2017-07-01T01:26:19.399Z,17.00
2017-07-01T01:28:45.834Z,17.00
2017-07-01T01:31:12.262Z,17.00
2017-07-01T01:33:38.928Z,17.00
2017-07-01T01:36:05.448Z,17.00
2017-07-01T01:38:32.202Z,17.00
2017-07-01T01:40:58.731Z,17.00
2017-07-01T01:43:25.258Z,17.00
2017-07-01T01:45:51.940Z,17.00
2017-07-01T01:48:18.533Z,17.10
2017-07-01T01:50:45.335Z,17.00
2017-07-01T01:53:12.096Z,17.00
2017-07-01T01:55:38.765Z,17.10
2017-07-01T01:58:05.596Z,17.00
2017-07-01T02:00:32.297Z,17.10
2017-07-01T02:02:59.776Z,17.10
2017-07-01T02:05:26.478Z,17.00
2017-07-01T02:07:52.930Z,17.10
2017-07-01T02:10:20.068Z,17.00
2017-07-01T02:12:47.276Z,17.00
2017-07-01T02:15:13.697Z,17.00
2017-07-01T02:17:44.990Z,17.00
2017-07-01T02:20:17.527Z,17.00
2017-07-01T02:22:44.886Z,17.00
2017-07-01T02:25:28.231Z,17.00
2017-07-01T02:27:54.639Z,17.00
2017-07-01T02:30:21.041Z,17.00
2017-07-01T02:32:55.385Z,16.90
2017-07-01T02:35:21.800Z,16.90
2017-07-01T02:37:48.163Z,16.90
2017-07-01T02:40:14.838Z,16.90
2017-07-01T02:42:41.249Z,16.90
2017-07-01T02:45:07.771Z,16.80
2017-07-01T02:47:46.614Z,16.90
2017-07-01T02:50:30.954Z,16.90
2017-07-01T02:53:03.116Z,16.90
2017-07-01T02:55:46.658Z,16.80
2017-07-01T02:58:13.121Z,16.90
2017-07-01T03:00:39.506Z,16.90
2017-07-01T03:03:06.149Z,16.90
2017-07-01T03:05:32.558Z,16.90
2017-07-01T03:07:58.963Z,16.80
2017-07-01T03:10:25.371Z,16.80
2017-07-01T03:12:51.741Z,16.90
2017-07-01T03:15:18.108Z,16.90
2017-07-01T03:17:45.023Z,16.90
2017-07-01T03:20:11.492Z,16.90
2017-07-01T03:22:37.960Z,16.90
2017-07-01T03:25:04.381Z,17.00
2017-07-01T03:27:31.088Z,17.00
2017-07-01T03:30:16.463Z,17.00
2017-07-01T03:32:42.860Z,16.90
2017-07-01T03:35:10.135Z,17.00
2017-07-01T03:37:48.726Z,16.90
2017-07-01T03:43:34.223Z,17.00
2017-07-01T03:46:02.346Z,17.00
2017-07-01T03:51:01.936Z,16.90
2017-07-01T03:53:29.279Z,16.90
2017-07-01T03:55:56.483Z,16.90
2017-07-01T03:58:24.833Z,16.90
2017-07-01T04:00:51.252Z,16.90
2017-07-01T04:03:17.764Z,16.90
2017-07-01T04:05:44.896Z,17.00
2017-07-01T04:08:11.236Z,16.90
2017-07-01T04:10:37.646Z,17.00
2017-07-01T04:13:03.999Z,17.00
2017-07-01T04:15:30.806Z,17.00
2017-07-01T04:18:03.138Z,17.00
2017-07-01T04:20:31.267Z,17.00
2017-07-01T04:22:57.610Z,17.00
2017-07-01T04:25:24.012Z,16.90
2017-07-01T04:27:50.347Z,16.90
2017-07-01T04:30:16.707Z,17.00
2017-07-01T04:32:43.828Z,17.00
2017-07-01T04:35:10.760Z,17.00
2017-07-01T04:37:37.776Z,17.00
2017-07-01T04:40:14.894Z,17.00
2017-07-01T04:42:41.230Z,17.00
2017-07-01T04:45:23.500Z,17.00
2017-07-01T04:47:53.679Z,17.10
2017-07-01T04:50:26.988Z,17.00
2017-07-01T04:52:54.652Z,17.10
2017-07-01T04:55:21.758Z,17.10
2017-07-01T04:57:49.736Z,17.00
2017-07-01T05:00:19.147Z,17.10
2017-07-01T05:02:45.540Z,17.10
2017-07-01T05:05:11.959Z,17.10
2017-07-01T05:21:26.463Z,17.10
2017-07-01T05:23:58.713Z,17.10
2017-07-01T05:26:25.171Z,17.20
2017-07-01T05:28:51.519Z,17.20
2017-07-01T05:31:31.685Z,17.20
2017-07-01T05:34:06.754Z,17.20
2017-07-01T05:36:43.260Z,17.20
2017-07-01T05:39:11.338Z,17.20
2017-07-01T05:41:49.599Z,17.30
2017-07-01T05:44:15.988Z,17.30
2017-07-01T05:46:42.403Z,17.30
2017-07-01T05:49:13.942Z,17.40
2017-07-01T05:51:49.925Z,17.40
2017-07-01T05:54:27.562Z,17.40
2017-07-01T05:56:53.967Z,17.50
2017-07-01T05:59:23.808Z,17.60
2017-07-01T06:01:50.226Z,17.60
2017-07-01T06:04:16.591Z,17.60
2017-07-01T06:06:43.063Z,17.60
2017-07-01T06:09:09.422Z,17.70
2017-07-01T06:11:36.520Z,17.80
2017-07-01T06:14:03.074Z,17.70
2017-07-01T06:16:36.227Z,17.80
2017-07-01T06:19:07.451Z,17.70
2017-07-01T06:21:46.484Z,17.70
2017-07-01T06:24:29.782Z,17.70
2017-07-01T06:27:02.961Z,17.70
2017-07-01T06:29:44.245Z,17.70
2017-07-01T06:32:22.748Z,17.70
2017-07-01T06:35:01.431Z,17.80
2017-07-01T06:37:47.743Z,17.80
2017-07-01T06:40:19.962Z,17.90
2017-07-01T06:42:46.303Z,17.90
2017-07-01T06:45:13.398Z,18.00
2017-07-01T06:47:39.803Z,18.00
2017-07-01T06:50:06.162Z,18.00
2017-07-01T06:52:32.545Z,18.00
2017-07-01T06:54:59.688Z,18.00
2017-07-01T06:57:31.956Z,18.00
2017-07-01T06:59:58.328Z,18.00
2017-07-01T07:02:24.728Z,18.00
2017-07-01T07:04:51.815Z,18.10
2017-07-01T07:07:18.232Z,18.00
2017-07-01T07:09:44.578Z,18.10
2017-07-01T07:12:10.933Z,18.10
2017-07-01T07:14:37.330Z,18.10
2017-07-01T07:17:03.746Z,18.20
2017-07-01T07:19:30.895Z,18.30
2017-07-01T07:21:57.983Z,18.30
2017-07-01T07:24:24.330Z,18.30
2017-07-01T07:26:50.712Z,18.40
2017-07-01T07:29:17.830Z,18.40
2017-07-01T07:31:44.210Z,18.40
2017-07-01T07:34:10.575Z,18.40
2017-07-01T07:36:36.973Z,18.40
2017-07-01T07:39:03.326Z,18.50
2017-07-01T07:41:29.631Z,18.50
2017-07-01T07:43:55.994Z,18.50
2017-07-01T07:46:22.305Z,18.60
2017-07-01T07:48:48.634Z,18.60
2017-07-01T07:51:14.989Z,18.60
2017-07-01T07:53:41.310Z,18.60
2017-07-01T07:56:07.624Z,18.60
2017-07-01T07:58:33.968Z,18.60
2017-07-01T08:01:00.279Z,18.60
2017-07-01T08:03:26.637Z,18.60
2017-07-01T08:05:52.945Z,18.60
2017-07-01T08:08:19.315Z,18.60
2017-07-01T08:10:45.793Z,18.60
2017-07-01T08:13:12.877Z,18.50
2017-07-01T08:15:39.196Z,18.60
2017-07-01T08:18:05.561Z,18.50
2017-07-01T08:20:31.890Z,18.50
2017-07-01T08:22:58.212Z,18.50
2017-07-01T08:25:24.578Z,18.60
2017-07-01T08:27:51.633Z,18.60
2017-07-01T08:30:18.667Z,18.70
2017-07-01T08:32:45.016Z,18.70
2017-07-01T08:35:12.075Z,18.70
2017-07-01T08:37:38.395Z,18.70
2017-07-01T08:40:05.781Z,18.80
2017-07-01T08:42:32.108Z,18.80
2017-07-01T08:44:58.427Z,18.80
2017-07-01T08:47:24.791Z,18.90
2017-07-01T08:49:51.109Z,18.80
2017-07-01T08:52:17.442Z,18.80
2017-07-01T08:54:43.808Z,18.80
2017-07-01T08:57:10.125Z,18.80
2017-07-01T08:59:36.449Z,18.90
2017-07-01T09:02:02.821Z,18.90
2017-07-01T09:04:29.867Z,18.90
2017-07-01T09:06:56.172Z,18.90
2017-07-01T09:09:22.614Z,19.00
2017-07-01T09:11:48.914Z,19.00
2017-07-01T09:14:15.234Z,19.10
2017-07-01T09:16:41.583Z,19.10
2017-07-01T09:19:07.893Z,19.20
2017-07-01T09:21:34.284Z,19.20
2017-07-01T09:24:01.341Z,19.20
2017-07-01T09:26:28.422Z,19.20
2017-07-01T09:28:54.794Z,19.20
2017-07-01T09:31:21.103Z,19.20
2017-07-01T09:33:47.422Z,19.20
2017-07-01T09:36:13.800Z,19.30
2017-07-01T09:38:40.887Z,19.30
2017-07-01T09:41:07.257Z,19.30
2017-07-01T09:43:33.573Z,19.30
2017-07-01T09:45:59.877Z,19.30
2017-07-01T09:48:26.268Z,19.30
2017-07-01T09:50:52.571Z,19.30
2017-07-01T09:53:18.885Z,19.30
2017-07-01T09:55:45.253Z,19.30
2017-07-01T09:58:11.563Z,19.30
2017-07-01T10:00:37.879Z,19.30
2017-07-01T10:03:04.260Z,19.30
2017-07-01T10:05:31.351Z,19.20
2017-07-01T10:07:57.660Z,19.20
2017-07-01T10:10:24.028Z,19.20
2017-07-01T10:12:50.347Z,19.30
2017-07-01T10:15:16.680Z,19.20
2017-07-01T10:17:43.474Z,19.30
2017-07-01T10:20:10.519Z,19.30
2017-07-01T10:22:37.616Z,19.20
2017-07-01T10:25:03.979Z,19.20
2017-07-01T10:27:30.331Z,19.30
2017-07-01T10:29:57.377Z,19.30
2017-07-01T10:32:24.479Z,19.40
2017-07-01T10:34:50.793Z,19.30
2017-07-01T10:37:17.116Z,19.30
2017-07-01T10:39:43.502Z,19.40
2017-07-01T10:42:09.828Z,19.40
2017-07-01T10:44:36.167Z,19.40
2017-07-01T10:47:02.523Z,19.40
2017-07-01T10:49:29.564Z,19.40
2017-07-01T10:51:56.670Z,19.40
2017-07-01T10:54:22.985Z,19.40
2017-07-01T10:56:49.297Z,19.40
2017-07-01T10:59:15.640Z,19.40
2017-07-01T11:01:41.950Z,19.40
2017-07-01T11:04:08.312Z,19.40
2017-07-01T11:06:34.626Z,19.40
2017-07-01T11:09:00.934Z,19.40
2017-07-01T11:11:28.044Z,19.40
2017-07-01T11:13:54.356Z,19.40
2017-07-01T11:16:20.687Z,19.40
2017-07-01T11:18:47.041Z,19.40
2017-07-01T11:21:13.380Z,19.40
2017-07-01T11:23:39.693Z,19.40
2017-07-01T11:26:06.085Z,19.40
2017-07-01T11:28:32.400Z,19.40
2017-07-01T11:30:58.713Z,19.40
2017-07-01T11:33:25.824Z,19.40
2017-07-01T11:35:52.140Z,19.30
2017-07-01T11:38:18.447Z,19.40
2017-07-01T11:40:44.852Z,19.40
2017-07-01T11:43:11.908Z,19.30
2017-07-01T11:45:38.208Z,19.30
2017-07-01T11:48:04.550Z,19.30
2017-07-01T11:50:30.861Z,19.30
2017-07-01T11:52:57.215Z,19.30
2017-07-01T11:55:23.538Z,19.30
2017-07-01T11:57:49.847Z,19.20
2017-07-01T12:00:16.208Z,19.20
2017-07-01T12:02:42.611Z,19.20
2017-07-01T12:05:08.931Z,19.20
2017-07-01T12:07:35.236Z,19.20
2017-07-01T12:10:01.588Z,19.30
2017-07-01T12:12:27.903Z,19.20
2017-07-01T12:14:54.209Z,19.20
2017-07-01T12:17:21.320Z,19.20
2017-07-01T12:19:47.630Z,19.20
2017-07-01T12:22:13.946Z,19.20
2017-07-01T12:24:40.308Z,19.20
2017-07-01T12:27:06.615Z,19.20
2017-07-01T12:29:32.937Z,19.20
2017-07-01T12:31:59.286Z,19.20
2017-07-01T12:34:25.640Z,19.20
2017-07-01T12:36:51.950Z,19.20
2017-07-01T12:39:18.352Z,19.20
2017-07-01T12:41:44.665Z,19.20
2017-07-01T12:44:11.706Z,19.20
2017-07-01T12:46:38.811Z,19.20
2017-07-01T12:49:05.122Z,19.10
2017-07-01T12:51:31.484Z,19.20
2017-07-01T12:53:57.793Z,19.20
2017-07-01T12:56:24.104Z,19.20
2017-07-01T12:58:50.470Z,19.20
2017-07-01T13:01:16.785Z,19.20
2017-07-01T13:03:43.134Z,19.20
2017-07-01T13:06:09.487Z,19.20
2017-07-01T13:08:35.875Z,19.20
2017-07-01T13:11:02.179Z,19.20
2017-07-01T13:13:28.481Z,19.20
2017-07-01T13:15:54.856Z,19.30
2017-07-01T13:18:21.185Z,19.30
2017-07-01T13:20:47.492Z,19.40
2017-07-01T13:23:14.591Z,19.30
2017-07-01T13:25:40.933Z,19.30
2017-07-01T13:28:07.236Z,19.30
2017-07-01T13:30:33.616Z,19.30
2017-07-01T13:32:59.923Z,19.40
2017-07-01T13:35:26.315Z,19.40
2017-07-01T13:37:52.623Z,19.40
2017-07-01T13:40:19.689Z,19.40
2017-07-01T13:42:46.033Z,19.40
2017-07-01T13:45:12.339Z,19.40
2017-07-01T13:47:39.483Z,19.50
2017-07-01T13:50:05.855Z,19.50
2017-07-01T13:52:32.167Z,19.50
2017-07-01T13:54:58.476Z,19.50
2017-07-01T13:57:25.572Z,19.60
2017-07-01T13:59:51.903Z,19.50
2017-07-01T14:02:18.550Z,19.60
2017-07-01T14:04:44.871Z,19.70
2017-07-01T14:07:11.189Z,19.70
2017-07-01T14:09:37.607Z,19.70
2017-07-01T14:12:04.034Z,19.80
2017-07-01T14:14:30.628Z,19.80
2017-07-01T14:16:57.134Z,19.90
2017-07-01T14:19:24.241Z,19.90
2017-07-01T14:21:51.341Z,20.10
2017-07-01T14:24:20.248Z,20.30
2017-07-01T14:26:46.889Z,20.30
2017-07-01T14:29:13.315Z,20.30
2017-07-01T14:31:40.103Z,20.40
2017-07-01T14:34:06.569Z,20.50
2017-07-01T14:36:32.983Z,20.60
2017-07-01T14:38:59.371Z,20.60
2017-07-01T14:41:25.972Z,20.60
2017-07-01T14:43:52.298Z,20.60
2017-07-01T14:46:18.643Z,20.50
2017-07-01T14:48:44.953Z,20.50
2017-07-01T14:51:11.307Z,20.50
2017-07-01T14:53:37.635Z,20.40
2017-07-01T14:56:03.934Z,20.40
2017-07-01T14:58:30.288Z,20.40
2017-07-01T15:00:56.607Z,20.40
2017-07-01T15:03:22.950Z,20.40
2017-07-01T15:05:49.318Z,20.40
2017-07-01T15:08:15.628Z,20.40
2017-07-01T15:10:41.939Z,20.40
2017-07-01T15:13:08.288Z,20.40
2017-07-01T15:15:34.596Z,20.40
2017-07-01T15:18:01.335Z,20.40
2017-07-01T15:20:27.643Z,20.40
2017-07-01T15:22:54.038Z,20.40
2017-07-01T15:25:20.542Z,20.40
2017-07-01T15:27:46.906Z,20.40
2017-07-01T15:30:13.299Z,20.40
2017-07-01T15:32:39.613Z,20.30
2017-07-01T15:35:07.080Z,20.40
2017-07-01T15:37:34.652Z,20.40
2017-07-01T15:40:00.979Z,20.40
2017-07-01T15:42:27.504Z,20.40
2017-07-01T15:44:54.273Z,20.30
2017-07-01T15:47:20.852Z,20.30
2017-07-01T15:49:47.527Z,20.30
2017-07-01T15:52:13.862Z,20.30
2017-07-01T15:54:40.172Z,20.20
2017-07-01T15:57:06.554Z,20.20
2017-07-01T15:59:32.864Z,20.20
2017-07-01T16:01:59.306Z,20.20
2017-07-01T16:04:25.678Z,20.10
2017-07-01T16:06:52.719Z,20.10
2017-07-01T16:09:19.072Z,20.10
2017-07-01T16:11:45.433Z,20.10
2017-07-01T16:14:11.740Z,20.00
2017-07-01T16:16:38.045Z,20.00
2017-07-01T16:19:05.148Z,20.00
2017-07-01T16:21:31.502Z,20.00
2017-07-01T16:23:57.910Z,20.00
2017-07-01T16:26:24.527Z,20.00
2017-07-01T16:28:50.877Z,19.90
2017-07-01T16:31:17.338Z,19.90
2017-07-01T16:33:44.175Z,19.90
2017-07-01T16:36:10.597Z,19.90
2017-07-01T16:38:36.911Z,19.90
2017-07-01T16:41:03.220Z,19.80
2017-07-01T16:43:29.598Z,19.80
2017-07-01T16:45:56.251Z,19.80
2017-07-01T16:48:22.550Z,19.80
2017-07-01T16:50:49.083Z,19.80
2017-07-01T16:53:15.515Z,19.80
2017-07-01T16:55:41.828Z,19.70
2017-07-01T16:58:08.452Z,19.70
2017-07-01T17:00:34.760Z,19.70
2017-07-01T17:03:01.075Z,19.70
2017-07-01T17:05:27.441Z,19.70
2017-07-01T17:07:54.525Z,19.70
2017-07-01T17:10:20.997Z,19.70
2017-07-01T17:12:47.350Z,19.70
2017-07-01T17:15:14.401Z,19.60
2017-07-01T17:17:41.476Z,19.60
2017-07-01T17:20:07.848Z,19.60
2017-07-01T17:22:34.286Z,19.60
2017-07-01T17:25:00.647Z,19.60
2017-07-01T17:27:28.452Z,19.60
2017-07-01T17:29:54.784Z,19.50
2017-07-01T17:32:21.153Z,19.60
2017-07-01T17:34:47.475Z,19.60
2017-07-01T17:37:13.786Z,19.50
2017-07-01T17:39:40.173Z,19.50
2017-07-01T17:42:06.478Z,19.50
2017-07-01T17:44:32.779Z,19.50
2017-07-01T17:46:59.119Z,19.50
2017-07-01T17:49:25.438Z,19.50
2017-07-01T17:51:51.811Z,19.50
2017-07-01T17:54:18.856Z,19.50
2017-07-01T17:56:45.914Z,19.50
2017-07-01T17:59:13.012Z,19.50
2017-07-01T18:01:39.311Z,19.40
2017-07-01T18:04:05.663Z,19.50
2017-07-01T18:06:32.061Z,19.40
2017-07-01T18:08:58.419Z,19.40
2017-07-01T18:11:24.747Z,19.40
2017-07-01T18:13:51.131Z,19.30
2017-07-01T18:16:17.482Z,19.30
2017-07-01T18:18:44.615Z,19.20
2017-07-01T18:21:10.984Z,19.20
2017-07-01T18:23:37.292Z,19.20
2017-07-01T18:26:04.343Z,19.10
2017-07-01T18:28:31.429Z,19.00
2017-07-01T18:30:57.786Z,19.00
2017-07-01T18:33:24.108Z,19.00
2017-07-01T18:35:50.452Z,19.00
2017-07-01T18:38:16.848Z,18.90
2017-07-01T18:40:43.181Z,18.90
2017-07-01T18:43:09.584Z,18.80
2017-07-01T18:45:36.002Z,18.80
2017-07-01T18:48:03.074Z,18.70
2017-07-01T18:50:29.470Z,18.70
2017-07-01T18:52:55.845Z,18.70
2017-07-01T18:55:22.199Z,18.60
2017-07-01T18:57:48.514Z,18.60
2017-07-01T19:00:14.891Z,18.60
2017-07-01T19:02:41.212Z,18.50
2017-07-01T19:05:07.518Z,18.50
2017-07-01T19:07:33.902Z,18.50
2017-07-01T19:10:00.976Z,18.40
2017-07-01T19:12:27.355Z,18.40
2017-07-01T19:14:53.732Z,18.40
2017-07-01T19:17:20.043Z,18.40
2017-07-01T19:19:47.088Z,18.30
2017-07-01T19:22:14.181Z,18.30
2017-07-01T19:24:40.508Z,18.30
2017-07-01T19:27:07.448Z,18.30
2017-07-01T19:29:33.839Z,18.20
2017-07-01T19:32:00.169Z,18.20
2017-07-01T19:34:26.518Z,18.20
2017-07-01T19:36:53.646Z,18.20
2017-07-01T19:39:20.021Z,18.20
2017-07-01T19:41:46.433Z,18.20
2017-07-01T19:44:13.580Z,18.20
2017-07-01T19:46:40.646Z,18.20
2017-07-01T19:49:06.978Z,18.20
2017-07-01T19:51:33.423Z,18.20
2017-07-01T19:53:59.859Z,18.10
2017-07-01T19:56:26.279Z,18.10
2017-07-01T19:58:52.660Z,18.10
2017-07-01T20:01:19.006Z,18.10
2017-07-01T20:03:46.064Z,18.10
2017-07-01T20:06:13.288Z,18.10
2017-07-01T20:08:39.705Z,18.10
2017-07-01T20:11:06.966Z,18.10
2017-07-01T20:13:35.653Z,18.10
2017-07-01T20:16:01.992Z,18.10
2017-07-01T20:18:28.324Z,18.10
2017-07-01T20:20:55.343Z,18.10
2017-07-01T20:23:21.957Z,18.10
2017-07-01T20:25:48.321Z,18.00
2017-07-01T20:28:15.749Z,18.00
2017-07-01T20:30:42.139Z,18.00
2017-07-01T20:33:08.456Z,18.00
2017-07-01T20:35:34.756Z,18.00
2017-07-01T20:38:01.152Z,18.00
2017-07-01T20:40:28.221Z,18.00
2017-07-01T20:42:55.833Z,18.00
2017-07-01T20:45:22.419Z,18.00
2017-07-01T20:47:48.729Z,18.00
2017-07-01T20:50:15.790Z,17.90
2017-07-01T20:52:42.177Z,17.90
2017-07-01T20:55:08.510Z,17.90
2017-07-01T20:57:34.823Z,17.90
2017-07-01T21:00:01.175Z,17.90
2017-07-01T21:02:27.474Z,17.90
2017-07-01T21:04:53.793Z,17.90
2017-07-01T21:07:20.159Z,17.90
2017-07-01T21:09:46.476Z,17.90
2017-07-01T21:12:12.807Z,17.80
2017-07-01T21:14:39.235Z,17.80
2017-07-01T21:17:05.648Z,17.80
2017-07-01T21:19:32.035Z,17.80
2017-07-01T21:21:58.736Z,17.80
2017-07-01T21:24:25.087Z,17.80
2017-07-01T21:26:51.488Z,17.80
2017-07-01T21:29:17.826Z,17.80
2017-07-01T21:31:44.222Z,17.80
2017-07-01T21:34:10.529Z,17.80
2017-07-01T21:36:36.838Z,17.80
2017-07-01T21:39:03.255Z,17.80
2017-07-01T21:41:29.563Z,17.80
2017-07-01T21:43:55.877Z,17.80
2017-07-01T21:46:22.255Z,17.80
2017-07-01T21:48:48.568Z,17.80
2017-07-01T21:51:14.880Z,17.80
2017-07-01T21:53:41.229Z,17.80
2017-07-01T21:56:07.600Z,17.80
2017-07-01T21:58:33.891Z,17.80
2017-07-01T22:01:00.206Z,17.80
2017-07-01T22:03:26.588Z,17.80
2017-07-01T22:05:52.891Z,17.80
2017-07-01T22:08:19.200Z,17.80
2017-07-01T22:10:45.599Z,17.80
2017-07-01T22:13:12.651Z,17.80
2017-07-01T22:15:39.783Z,17.80
2017-07-01T22:18:06.167Z,17.80
2017-07-01T22:20:32.482Z,17.80
2017-07-01T22:22:58.839Z,17.80
2017-07-01T22:25:25.145Z,17.80
2017-07-01T22:27:51.455Z,17.80
2017-07-01T22:30:18.564Z,17.80
2017-07-01T22:32:44.861Z,17.80
2017-07-01T22:35:11.233Z,17.80
2017-07-01T22:37:37.605Z,17.80
2017-07-01T22:40:04.705Z,17.80
2017-07-01T22:42:31.026Z,17.80
2017-07-01T22:44:57.459Z,17.80
2017-07-01T22:47:23.777Z,17.80
2017-07-01T22:49:50.090Z,17.80
2017-07-01T22:52:16.435Z,17.80
2017-07-01T22:54:42.844Z,17.80
2017-07-01T22:57:09.299Z,17.80
2017-07-01T22:59:35.610Z,17.80
2017-07-01T23:02:02.192Z,17.80
2017-07-01T23:04:28.519Z,17.70
2017-07-01T23:06:54.820Z,17.70
2017-07-01T23:09:21.220Z,17.70
2017-07-01T23:11:48.276Z,17.70
2017-07-01T23:14:15.366Z,17.70
2017-07-01T23:16:41.710Z,17.70
2017-07-01T23:19:08.027Z,17.70
2017-07-01T23:21:34.361Z,17.70
2017-07-01T23:24:00.716Z,17.70
2017-07-01T23:26:27.103Z,17.70
2017-07-01T23:28:53.446Z,17.70
2017-07-01T23:31:19.779Z,17.70
2017-07-01T23:33:46.232Z,17.70
2017-07-01T23:36:12.534Z,17.70
2017-07-01T23:38:39.047Z,17.70
2017-07-01T23:41:05.524Z,17.70
2017-07-01T23:43:31.841Z,17.70
2017-07-01T23:45:58.247Z,17.70
2017-07-01T23:48:24.596Z,17.70
2017-07-01T23:50:50.992Z,17.70
2017-07-01T23:53:18.088Z,17.60
2017-07-01T23:55:44.398Z,17.60
2017-07-01T23:58:10.748Z,17.60
